createdAt,value
2023-04-24T00:00:51.938Z,98765.66
2023-04-24T00:03:22.120Z,98763.78
2023-04-24T00:05:50.029Z,98752.38
2023-04-24T00:08:17.915Z,98751.28
2023-04-24T00:10:48.226Z,98735.28
2023-04-24T00:13:16.061Z,98747.75
2023-04-24T00:15:43.790Z,98745.53
2023-04-24T00:18:12.072Z,98745.81
2023-04-24T00:20:40.633Z,98736.75
2023-04-24T00:23:08.504Z,98739.00
2023-04-24T00:25:36.216Z,98733.91
2023-04-24T00:28:05.325Z,98746.16
2023-04-24T00:30:33.178Z,98743.97
2023-04-24T00:33:01.181Z,98742.13
2023-04-24T00:35:29.056Z,98737.78
2023-04-24T00:37:56.744Z,98735.66
2023-04-24T00:40:24.607Z,98742.19
2023-04-24T00:42:52.502Z,98736.31
2023-04-24T00:45:21.900Z,98733.84
2023-04-24T00:47:50.600Z,98731.81
2023-04-24T00:50:18.615Z,98724.50
2023-04-24T00:52:46.358Z,98735.72
2023-04-24T00:55:14.027Z,98738.03
2023-04-24T00:57:41.708Z,98725.41
2023-04-24T01:00:12.811Z,98723.31
2023-04-24T01:02:45.405Z,98739.50
2023-04-24T01:05:14.129Z,98737.59
2023-04-24T01:07:44.933Z,98738.28
2023-04-24T01:10:13.327Z,98743.56
2023-04-24T01:12:41.028Z,98754.81
2023-04-24T01:15:10.349Z,98745.00
2023-04-24T01:17:39.443Z,98739.22
2023-04-24T01:20:10.092Z,98732.03
2023-04-24T01:22:39.076Z,98728.09
2023-04-24T01:25:07.513Z,98726.84
2023-04-24T01:27:35.096Z,98730.16
2023-04-24T01:30:03.175Z,98732.28
2023-04-24T01:32:31.606Z,98723.38
2023-04-24T01:35:00.444Z,98719.75
2023-04-24T01:37:28.772Z,98721.78
2023-04-24T01:39:57.815Z,98734.28
2023-04-24T01:42:27.959Z,98727.03
2023-04-24T01:44:56.372Z,98721.56
2023-04-24T01:47:25.940Z,98716.00
2023-04-24T01:49:53.881Z,98710.47
2023-04-24T01:52:21.577Z,98713.97
2023-04-24T01:54:49.541Z,98717.50
2023-04-24T01:57:19.705Z,98722.69
2023-04-24T01:59:47.312Z,98711.47
2023-04-24T02:02:16.332Z,98712.16
2023-04-24T02:04:44.278Z,98710.78
2023-04-24T02:07:11.959Z,98709.59
2023-04-24T02:09:39.825Z,98711.22
2023-04-24T02:12:07.550Z,98704.63
2023-04-24T02:14:36.583Z,98709.53
2023-04-24T02:17:05.788Z,98697.44
2023-04-24T02:19:33.562Z,98706.09
2023-04-24T02:22:01.184Z,98696.72
2023-04-24T02:24:28.827Z,98705.00
2023-04-24T02:26:56.747Z,98688.63
2023-04-24T02:29:24.427Z,98693.25
2023-04-24T02:31:53.520Z,98697.09
2023-04-24T02:34:21.194Z,98694.09
2023-04-24T02:36:48.836Z,98701.63
2023-04-24T02:39:17.468Z,98701.41
2023-04-24T02:41:48.932Z,98702.56
2023-04-24T02:44:18.219Z,98712.56
2023-04-24T02:46:45.912Z,98719.25
2023-04-24T02:49:14.897Z,98721.84
2023-04-24T02:51:42.785Z,98725.44
2023-04-24T02:54:11.061Z,98726.78
2023-04-24T02:56:38.886Z,98727.50
2023-04-24T02:59:08.545Z,98738.38
2023-04-24T03:01:36.284Z,98742.88
2023-04-24T03:04:04.597Z,98742.59
2023-04-24T03:06:36.327Z,98746.63
2023-04-24T03:09:04.392Z,98752.63
2023-04-24T03:11:33.222Z,98755.66
2023-04-24T03:14:01.851Z,98754.56
2023-04-24T03:16:29.625Z,98755.97
2023-04-24T03:18:57.299Z,98751.97
2023-04-24T03:21:28.317Z,98751.13
2023-04-24T03:23:57.583Z,98757.78
2023-04-24T03:26:25.761Z,98767.16
2023-04-24T03:29:05.343Z,98767.66
2023-04-24T03:31:33.169Z,98760.66
2023-04-24T03:34:00.863Z,98691.50
2023-04-24T03:36:29.323Z,98767.78
2023-04-24T03:38:58.639Z,98763.44
2023-04-24T03:41:31.140Z,98757.97
2023-04-24T03:44:10.997Z,98779.63
2023-04-24T03:46:39.489Z,98768.16
2023-04-24T03:49:08.037Z,98768.16
2023-04-24T03:51:39.252Z,98773.75
2023-04-24T03:54:20.698Z,98774.53
2023-04-24T03:56:48.355Z,98775.34
2023-04-24T03:59:16.141Z,98785.91
2023-04-24T04:01:47.861Z,98791.81
2023-04-24T04:04:17.884Z,98796.56
2023-04-24T04:06:47.397Z,98793.06
2023-04-24T04:09:15.461Z,98797.41
2023-04-24T04:11:44.572Z,98812.28
2023-04-24T04:14:13.573Z,98817.84
2023-04-24T04:16:44.525Z,98817.09
2023-04-24T04:19:12.994Z,98818.25
2023-04-24T04:21:40.746Z,98823.47
2023-04-24T04:24:19.450Z,98820.72
2023-04-24T04:26:51.884Z,98832.13
2023-04-24T04:29:26.919Z,98815.38
2023-04-24T04:31:54.651Z,98833.00
2023-04-24T04:34:23.573Z,98833.06
2023-04-24T04:36:52.544Z,98843.19
2023-04-24T04:39:31.530Z,98839.31
2023-04-24T04:42:04.967Z,98845.19
2023-04-24T04:44:40.814Z,98850.69
2023-04-24T04:47:12.145Z,98838.19
2023-04-24T04:49:40.681Z,98835.81
2023-04-24T04:52:14.171Z,98842.88
2023-04-24T04:54:42.079Z,98846.00
2023-04-24T04:57:11.094Z,98844.03
2023-04-24T04:59:39.098Z,98844.81
2023-04-24T05:02:12.659Z,98855.00
2023-04-24T05:04:41.043Z,98865.22
2023-04-24T05:07:08.857Z,98867.16
2023-04-24T05:09:40.906Z,98866.75
2023-04-24T05:12:08.930Z,98876.19
2023-04-24T05:14:45.337Z,98880.88
2023-04-24T05:17:14.012Z,98891.81
2023-04-24T05:19:42.040Z,98889.06
2023-04-24T05:22:10.743Z,98889.44
2023-04-24T05:24:47.220Z,98899.19
2023-04-24T05:27:24.897Z,98896.41
2023-04-24T05:29:54.032Z,98903.41
2023-04-24T05:32:21.872Z,98904.94
2023-04-24T05:34:49.564Z,98905.66
2023-04-24T05:37:17.280Z,98908.34
2023-04-24T05:39:44.972Z,98908.28
2023-04-24T05:42:12.691Z,98904.00
2023-04-24T05:44:40.817Z,98921.75
2023-04-24T05:47:09.966Z,98918.50
2023-04-24T05:49:37.596Z,98912.63
2023-04-24T05:52:07.449Z,98914.19
2023-04-24T05:54:35.140Z,98911.47
2023-04-24T05:57:05.598Z,98924.81
2023-04-24T05:59:46.405Z,98929.06
2023-04-24T06:02:15.769Z,98934.91
2023-04-24T06:04:43.752Z,98934.88
2023-04-24T06:07:12.232Z,98932.53
2023-04-24T06:09:44.042Z,98928.75
2023-04-24T06:12:12.220Z,98938.44
2023-04-24T06:14:56.914Z,98943.53
2023-04-24T06:17:49.806Z,98931.38
2023-04-24T06:20:19.679Z,98927.91
2023-04-24T06:22:47.450Z,98943.97
2023-04-24T06:25:15.245Z,98949.47
2023-04-24T06:27:42.843Z,98945.41
2023-04-24T06:30:11.971Z,98899.66
2023-04-24T06:32:40.120Z,98953.59
2023-04-24T06:35:10.793Z,98950.94
2023-04-24T06:37:39.369Z,98952.84
2023-04-24T06:40:08.742Z,98956.59
2023-04-24T06:42:36.920Z,98960.53
2023-04-24T06:45:06.068Z,98969.34
2023-04-24T06:47:34.122Z,98968.63
2023-04-24T06:50:02.223Z,98957.34
2023-04-24T06:52:33.631Z,98963.19
2023-04-24T06:55:02.871Z,98966.72
2023-04-24T06:57:30.672Z,98966.69
2023-04-24T06:59:58.328Z,98968.66
2023-04-24T07:02:26.706Z,98968.72
2023-04-24T07:04:54.693Z,98965.59
2023-04-24T07:07:24.937Z,98977.78
2023-04-24T07:09:55.100Z,98977.28
2023-04-24T07:12:22.748Z,98985.59
2023-04-24T07:14:50.591Z,98984.50
2023-04-24T07:17:18.253Z,98986.00
2023-04-24T07:19:46.271Z,98991.03
2023-04-24T07:22:17.694Z,98995.72
2023-04-24T07:24:45.623Z,98998.91
2023-04-24T07:27:16.038Z,98996.16
2023-04-24T07:29:44.632Z,99000.88
2023-04-24T07:32:12.588Z,99003.41
2023-04-24T07:34:40.971Z,98998.59
2023-04-24T07:37:08.664Z,99000.69
2023-04-24T07:39:36.310Z,98999.88
2023-04-24T07:42:04.446Z,98985.81
2023-04-24T07:44:33.600Z,98990.41
2023-04-24T07:47:01.315Z,98993.09
2023-04-24T07:49:29.764Z,99005.22
2023-04-24T07:51:57.395Z,98996.53
2023-04-24T07:54:25.087Z,98998.50
2023-04-24T07:56:52.749Z,99009.75
2023-04-24T07:59:20.390Z,99012.25
2023-04-24T08:01:49.327Z,99015.72
2023-04-24T08:04:17.120Z,99022.03
2023-04-24T08:06:44.872Z,99018.66
2023-04-24T08:09:12.635Z,99019.50
2023-04-24T08:11:40.365Z,99014.22
2023-04-24T08:14:08.002Z,99018.84
2023-04-24T08:16:36.806Z,99009.28
2023-04-24T08:19:05.953Z,99030.78
2023-04-24T08:21:33.652Z,99026.19
2023-04-24T08:24:02.006Z,99028.56
2023-04-24T08:26:29.902Z,99025.69
2023-04-24T08:28:57.908Z,99038.63
2023-04-24T08:31:26.091Z,99041.81
2023-04-24T08:33:53.763Z,99031.97
2023-04-24T08:36:24.928Z,99039.53
2023-04-24T08:38:56.212Z,99043.03
2023-04-24T08:41:27.050Z,99048.34
2023-04-24T08:43:55.972Z,99050.63
2023-04-24T08:46:24.526Z,99063.06
2023-04-24T08:48:54.058Z,99062.25
2023-04-24T08:51:23.899Z,99068.19
2023-04-24T08:53:54.111Z,99066.28
2023-04-24T08:56:24.300Z,99072.84
2023-04-24T08:58:52.952Z,99068.09
2023-04-24T09:01:21.637Z,99063.78
2023-04-24T09:03:51.145Z,99060.69
2023-04-24T09:06:19.962Z,99068.72
2023-04-24T09:08:51.852Z,99079.78
2023-04-24T09:11:20.135Z,99074.78
2023-04-24T09:13:48.594Z,99075.38
2023-04-24T09:16:16.363Z,99083.94
2023-04-24T09:18:44.021Z,99086.81
2023-04-24T09:21:12.151Z,99081.66
2023-04-24T09:23:40.653Z,99086.88
2023-04-24T09:26:11.467Z,99080.06
2023-04-24T09:28:41.871Z,99085.03
2023-04-24T09:31:11.505Z,99095.06
2023-04-24T09:33:39.354Z,99103.19
2023-04-24T09:36:07.810Z,99092.31
2023-04-24T09:38:37.467Z,99098.25
2023-04-24T09:41:08.034Z,99109.75
2023-04-24T09:43:37.644Z,99107.00
2023-04-24T09:46:08.371Z,99121.13
2023-04-24T09:48:37.946Z,99128.56
2023-04-24T09:51:08.096Z,99126.34
2023-04-24T09:53:35.769Z,99123.19
2023-04-24T09:56:09.347Z,99128.94
2023-04-24T09:58:38.928Z,99134.44
2023-04-24T10:01:06.744Z,99139.22
2023-04-24T10:03:35.478Z,99125.53
2023-04-24T10:06:09.418Z,99133.78
2023-04-24T10:08:38.325Z,99147.09
2023-04-24T10:11:06.461Z,99118.03
2023-04-24T10:13:34.806Z,99138.44
2023-04-24T10:16:05.462Z,99138.72
2023-04-24T10:18:34.022Z,99147.41
2023-04-24T10:21:03.538Z,99145.25
2023-04-24T10:23:32.834Z,99141.97
2023-04-24T10:26:02.227Z,99148.66
2023-04-24T10:28:32.629Z,99146.16
2023-04-24T10:31:00.583Z,99150.88
2023-04-24T10:33:31.524Z,99143.53
2023-04-24T10:36:00.324Z,99152.25
2023-04-24T10:38:30.808Z,99151.59
2023-04-24T10:41:09.077Z,99156.41
2023-04-24T10:43:37.027Z,99153.63
2023-04-24T10:46:06.552Z,99158.16
2023-04-24T10:48:35.882Z,99161.47
2023-04-24T10:51:03.825Z,99164.41
2023-04-24T10:53:32.580Z,99157.69
2023-04-24T10:56:01.535Z,99164.22
2023-04-24T10:58:41.067Z,99174.88
2023-04-24T11:01:09.092Z,99183.69
2023-04-24T11:03:38.617Z,99168.84
2023-04-24T11:06:08.092Z,99168.22
2023-04-24T11:08:41.583Z,99182.03
2023-04-24T11:11:13.706Z,99180.19
2023-04-24T11:14:04.425Z,99185.03
2023-04-24T11:16:34.891Z,99184.19
2023-04-24T11:19:06.396Z,99180.72
2023-04-24T11:21:41.106Z,99186.22
2023-04-24T11:24:29.823Z,99188.59
2023-04-24T11:26:59.923Z,99187.47
2023-04-24T11:29:41.666Z,99181.41
2023-04-24T11:32:26.324Z,99190.22
2023-04-24T11:34:56.689Z,99199.47
2023-04-24T11:37:25.358Z,99193.88
2023-04-24T11:39:54.759Z,99196.38
2023-04-24T11:42:24.338Z,99189.03
2023-04-24T11:44:54.406Z,99193.94
2023-04-24T11:47:22.712Z,99186.34
2023-04-24T11:49:52.400Z,99190.25
2023-04-24T11:52:21.630Z,99188.91
2023-04-24T11:54:51.185Z,99199.50
2023-04-24T11:57:22.882Z,99196.16
2023-04-24T11:59:51.153Z,99193.91
2023-04-24T12:02:25.859Z,99195.66
2023-04-24T12:04:54.906Z,99198.88
2023-04-24T12:07:25.358Z,99191.66
2023-04-24T12:10:00.547Z,99193.19
2023-04-24T12:12:29.791Z,99175.13
2023-04-24T12:14:59.008Z,99178.38
2023-04-24T12:17:29.560Z,99187.47
2023-04-24T12:20:01.729Z,99178.84
2023-04-24T12:22:45.705Z,99176.88
2023-04-24T12:25:13.943Z,99170.16
2023-04-24T12:27:41.563Z,99178.91
2023-04-24T12:30:15.008Z,99172.91
2023-04-24T12:32:44.623Z,99180.44
2023-04-24T12:35:12.404Z,99201.91
2023-04-24T12:37:47.201Z,99196.41
2023-04-24T12:40:16.396Z,99195.34
2023-04-24T12:42:45.429Z,99193.53
2023-04-24T12:45:14.064Z,99209.63
2023-04-24T12:47:42.872Z,99210.84
2023-04-24T12:50:11.724Z,99205.56
2023-04-24T12:52:41.073Z,99203.53
2023-04-24T12:55:10.038Z,99205.91
2023-04-24T12:57:39.512Z,99212.28
2023-04-24T13:00:10.491Z,99199.13
2023-04-24T13:02:38.454Z,99206.13
2023-04-24T13:05:08.006Z,99207.91
2023-04-24T13:07:35.899Z,99208.91
2023-04-24T13:10:05.196Z,99209.81
2023-04-24T13:12:32.865Z,99204.97
2023-04-24T13:15:00.976Z,99212.19
2023-04-24T13:17:28.651Z,99209.38
2023-04-24T13:19:57.283Z,99213.13
2023-04-24T13:22:24.934Z,99209.50
2023-04-24T13:24:52.731Z,99207.88
2023-04-24T13:27:21.797Z,99201.53
2023-04-24T13:29:49.439Z,99197.06
2023-04-24T13:32:17.387Z,99197.63
2023-04-24T13:34:45.529Z,99207.25
2023-04-24T13:37:13.668Z,99204.75
2023-04-24T13:39:42.236Z,99205.63
2023-04-24T13:42:10.183Z,99210.22
2023-04-24T13:44:39.410Z,99208.44
2023-04-24T13:47:07.160Z,99205.09
2023-04-24T13:49:34.916Z,99206.06
2023-04-24T13:52:04.045Z,99202.97
2023-04-24T13:54:31.957Z,99208.16
2023-04-24T13:57:00.283Z,99210.50
2023-04-24T13:59:28.098Z,99206.59
2023-04-24T14:01:57.173Z,99202.78
2023-04-24T14:04:25.187Z,99206.81
2023-04-24T14:06:53.454Z,99208.13
2023-04-24T14:09:21.113Z,99207.00
2023-04-24T14:11:48.781Z,99213.59
2023-04-24T14:14:16.892Z,99210.03
2023-04-24T14:16:44.554Z,99209.84
2023-04-24T14:19:13.495Z,99208.94
2023-04-24T14:21:41.160Z,99208.84
2023-04-24T14:24:08.788Z,99220.22
2023-04-24T14:26:36.769Z,99219.31
2023-04-24T14:29:14.308Z,99219.41
2023-04-24T14:31:43.329Z,99211.22
2023-04-24T14:34:11.363Z,99205.44
2023-04-24T14:36:40.303Z,99210.50
2023-04-24T14:39:08.664Z,99211.03
2023-04-24T14:41:38.101Z,99212.22
2023-04-24T14:44:06.204Z,99210.38
2023-04-24T14:46:34.118Z,99201.72
2023-04-24T14:49:01.771Z,99202.16
2023-04-24T14:51:29.487Z,99209.47
2023-04-24T14:53:58.509Z,99208.28
2023-04-24T14:56:26.482Z,99208.97
2023-04-24T14:58:54.263Z,99213.41
2023-04-24T15:01:22.178Z,99215.78
2023-04-24T15:03:50.390Z,99208.78
2023-04-24T15:06:18.239Z,99216.84
2023-04-24T15:08:46.918Z,99208.69
2023-04-24T15:11:18.167Z,99212.50
2023-04-24T15:13:47.068Z,99211.25
2023-04-24T15:16:15.052Z,99214.28
2023-04-24T15:18:42.787Z,99212.88
2023-04-24T15:21:10.734Z,99212.69
2023-04-24T15:23:39.427Z,99216.41
2023-04-24T15:26:07.139Z,99223.00
2023-04-24T15:28:36.061Z,99220.22
2023-04-24T15:31:03.637Z,99223.47
2023-04-24T15:33:31.411Z,99230.06
2023-04-24T15:35:59.051Z,99231.91
2023-04-24T15:38:27.408Z,99233.19
2023-04-24T15:40:55.009Z,99229.03
2023-04-24T15:43:23.226Z,99234.56
2023-04-24T15:45:52.674Z,99230.84
2023-04-24T15:48:20.845Z,99206.47
2023-04-24T15:50:48.437Z,99231.72
2023-04-24T15:53:21.919Z,99222.53
2023-04-24T15:55:49.656Z,99222.47
2023-04-24T15:58:17.352Z,99222.09
2023-04-24T16:00:45.324Z,99188.91
2023-04-24T16:03:15.328Z,99228.56
2023-04-24T16:05:43.030Z,99235.47
2023-04-24T16:08:11.230Z,99242.94
2023-04-24T16:10:38.912Z,99228.03
2023-04-24T16:13:06.606Z,99232.38
2023-04-24T16:15:34.850Z,99230.94
2023-04-24T16:18:02.918Z,99221.09
2023-04-24T16:20:31.974Z,99237.31
2023-04-24T16:22:59.626Z,99232.38
2023-04-24T16:25:27.321Z,99245.78
2023-04-24T16:27:55.188Z,99238.09
2023-04-24T16:30:22.912Z,99236.72
2023-04-24T16:32:50.883Z,99223.19
2023-04-24T16:35:18.539Z,99231.72
2023-04-24T16:37:47.529Z,99219.13
2023-04-24T16:40:15.143Z,99219.41
2023-04-24T16:42:42.828Z,99211.41
2023-04-24T16:45:11.178Z,99220.84
2023-04-24T16:47:38.843Z,99227.16
2023-04-24T16:50:07.461Z,99212.22
2023-04-24T16:52:36.372Z,99173.47
2023-04-24T16:55:06.041Z,99219.25
2023-04-24T16:57:33.664Z,99229.34
2023-04-24T17:00:01.987Z,99227.81
2023-04-24T17:02:29.723Z,99215.06
2023-04-24T17:04:57.704Z,99223.81
2023-04-24T17:07:25.820Z,99214.00
2023-04-24T17:09:53.416Z,99220.59
2023-04-24T17:12:22.438Z,99214.22
2023-04-24T17:14:50.134Z,99207.72
2023-04-24T17:17:19.980Z,99204.75
2023-04-24T17:19:47.607Z,99208.41
2023-04-24T17:22:15.293Z,99207.38
2023-04-24T17:24:42.910Z,99218.78
2023-04-24T17:27:14.946Z,99217.63
2023-04-24T17:29:44.421Z,99224.88
2023-04-24T17:32:12.136Z,99225.09
2023-04-24T17:34:40.152Z,99216.47
2023-04-24T17:37:07.780Z,99223.84
2023-04-24T17:39:35.384Z,99219.66
2023-04-24T17:42:03.061Z,99225.09
2023-04-24T17:44:30.745Z,99223.47
2023-04-24T17:47:00.050Z,99223.97
2023-04-24T17:49:27.788Z,99228.28
2023-04-24T17:51:55.404Z,99228.22
2023-04-24T17:54:23.107Z,99216.97
2023-04-24T17:56:52.757Z,99234.59
2023-04-24T17:59:20.867Z,99238.19
2023-04-24T18:01:48.553Z,99241.28
2023-04-24T18:04:18.403Z,99241.31
2023-04-24T18:06:46.371Z,99247.97
2023-04-24T18:09:15.821Z,99238.47
2023-04-24T18:11:43.608Z,99239.63
2023-04-24T18:14:11.310Z,99236.97
2023-04-24T18:16:39.029Z,99249.47
2023-04-24T18:19:06.873Z,99249.16
2023-04-24T18:21:35.888Z,99253.91
2023-04-24T18:24:03.477Z,99250.34
2023-04-24T18:26:31.136Z,99264.72
2023-04-24T18:28:59.249Z,99261.97
2023-04-24T18:31:27.078Z,99261.59
2023-04-24T18:33:55.664Z,99257.78
2023-04-24T18:36:23.261Z,99256.66
2023-04-24T18:38:52.247Z,99259.84
2023-04-24T18:41:19.981Z,99271.38
2023-04-24T18:43:47.796Z,99264.72
2023-04-24T18:46:15.934Z,99268.69
2023-04-24T18:48:43.565Z,99270.25
2023-04-24T18:51:11.419Z,99274.63
2023-04-24T18:53:39.089Z,99278.53
2023-04-24T18:56:08.485Z,99283.25
2023-04-24T18:58:36.145Z,99282.09
2023-04-24T19:01:06.137Z,99282.09
2023-04-24T19:03:35.755Z,99281.75
2023-04-24T19:06:03.488Z,99284.91
2023-04-24T19:08:31.139Z,99291.56
2023-04-24T19:10:58.800Z,99280.19
2023-04-24T19:13:27.731Z,99286.44
2023-04-24T19:15:55.345Z,99295.47
2023-04-24T19:18:22.925Z,99295.88
2023-04-24T19:20:50.554Z,99292.75
2023-04-24T19:23:18.347Z,99281.72
2023-04-24T19:25:45.948Z,99284.47
2023-04-24T19:28:13.572Z,99287.97
2023-04-24T19:30:42.829Z,99293.09
2023-04-24T19:33:10.813Z,99290.34
2023-04-24T19:35:38.969Z,99299.75
2023-04-24T19:38:06.635Z,99300.53
2023-04-24T19:40:34.261Z,99302.91
2023-04-24T19:43:01.863Z,99305.28
2023-04-24T19:45:29.625Z,99301.72
2023-04-24T19:47:59.883Z,99289.16
2023-04-24T19:50:27.865Z,99293.09
2023-04-24T19:52:55.512Z,99296.66
2023-04-24T19:55:23.164Z,99299.00
2023-04-24T19:57:51.054Z,99302.16
2023-04-24T20:00:18.801Z,99308.41
2023-04-24T20:02:46.543Z,99306.47
2023-04-24T20:05:15.971Z,99304.88
2023-04-24T20:07:44.109Z,99314.72
2023-04-24T20:10:11.721Z,99302.94
2023-04-24T20:12:39.729Z,99305.66
2023-04-24T20:15:09.044Z,99304.50
2023-04-24T20:17:36.780Z,99304.09
2023-04-24T20:20:04.967Z,99304.50
2023-04-24T20:22:38.635Z,99303.72
2023-04-24T20:25:07.558Z,99304.50
2023-04-24T20:27:35.677Z,99315.50
2023-04-24T20:30:04.123Z,99312.41
2023-04-24T20:32:32.347Z,99306.13
2023-04-24T20:35:00.242Z,99314.75
2023-04-24T20:37:29.137Z,99313.19
2023-04-24T20:39:59.828Z,99304.09
2023-04-24T20:42:27.573Z,99306.09
2023-04-24T20:44:55.827Z,99304.53
2023-04-24T20:47:23.479Z,99299.81
2023-04-24T20:49:51.104Z,99301.78
2023-04-24T20:52:18.747Z,99299.44
2023-04-24T20:54:46.727Z,99301.78
2023-04-24T20:57:15.815Z,99301.00
2023-04-24T20:59:43.600Z,99305.31
2023-04-24T21:02:11.362Z,99297.47
2023-04-24T21:04:40.049Z,99295.88
2023-04-24T21:07:09.257Z,99300.59
2023-04-24T21:09:36.996Z,99295.09
2023-04-24T21:12:05.378Z,99288.84
2023-04-24T21:14:34.406Z,99301.78
2023-04-24T21:17:03.069Z,99302.19
2023-04-24T21:19:30.788Z,99296.28
2023-04-24T21:21:58.358Z,99292.78
2023-04-24T21:24:25.992Z,99300.22
2023-04-24T21:26:53.642Z,99294.34
2023-04-24T21:29:21.367Z,99290.00
2023-04-24T21:31:50.525Z,99290.38
2023-04-24T21:34:18.135Z,99293.53
2023-04-24T21:36:47.395Z,99288.41
2023-04-24T21:39:15.084Z,99282.16
2023-04-24T21:41:42.829Z,99289.59
2023-04-24T21:44:10.571Z,99281.34
2023-04-24T21:46:38.199Z,99284.53
2023-04-24T21:49:07.161Z,99280.16
2023-04-24T21:51:34.911Z,99276.63
2023-04-24T21:54:02.579Z,99268.28
2023-04-24T21:56:30.283Z,99279.31
2023-04-24T21:58:58.017Z,99278.91
2023-04-24T22:01:25.705Z,99274.63
2023-04-24T22:03:53.904Z,99266.75
2023-04-24T22:06:23.308Z,99273.84
2023-04-24T22:08:51.642Z,99267.56
2023-04-24T22:11:26.707Z,99279.69
2023-04-24T22:13:55.653Z,99269.88
2023-04-24T22:16:24.682Z,99267.06
2023-04-24T22:18:53.495Z,99234.91
2023-04-24T22:21:23.502Z,99240.38
2023-04-24T22:23:51.378Z,99270.22
2023-04-24T22:26:19.629Z,99266.28
2023-04-24T22:28:48.344Z,99270.22
2023-04-24T22:31:16.366Z,99275.72
2023-04-24T22:33:46.094Z,99265.91
2023-04-24T22:36:13.865Z,99260.41
2023-04-24T22:38:42.850Z,99266.28
2023-04-24T22:41:10.495Z,99260.41
2023-04-24T22:43:38.161Z,99266.25
2023-04-24T22:46:05.820Z,99267.34
2023-04-24T22:48:34.617Z,99268.53
2023-04-24T22:51:02.531Z,99263.34
2023-04-24T22:53:30.216Z,99260.59
2023-04-24T22:55:59.233Z,99257.88
2023-04-24T22:58:26.903Z,99257.81
2023-04-24T23:00:54.616Z,99262.47
2023-04-24T23:03:22.498Z,99255.44
2023-04-24T23:05:50.402Z,99262.78
2023-04-24T23:08:18.182Z,99262.03
2023-04-24T23:10:45.851Z,99261.22
2023-04-24T23:13:14.947Z,99256.53
2023-04-24T23:15:42.594Z,99258.88
2023-04-24T23:18:10.378Z,99264.75
2023-04-24T23:20:38.885Z,99256.50
2023-04-24T23:23:06.560Z,99260.84
2023-04-24T23:25:34.681Z,99252.56
2023-04-24T23:28:02.374Z,99258.09
2023-04-24T23:30:31.347Z,99257.72
2023-04-24T23:32:58.998Z,99256.97
2023-04-24T23:35:27.029Z,99249.13
2023-04-24T23:37:55.842Z,99250.34
2023-04-24T23:40:23.674Z,99239.78
2023-04-24T23:42:59.962Z,99244.88
2023-04-24T23:45:35.459Z,99244.88
2023-04-24T23:48:03.996Z,99244.88
2023-04-24T23:50:31.729Z,99245.63
2023-04-24T23:52:59.591Z,99246.41
2023-04-24T23:55:27.213Z,99246.41
2023-04-24T23:57:54.795Z,99239.75
